createdAt,value
2023-02-06T00:01:00.930Z,63.16
2023-02-06T00:04:02.776Z,63.53
2023-02-06T00:07:04.520Z,63.67
2023-02-06T00:10:06.700Z,63.82
2023-02-06T00:13:08.536Z,63.83
2023-02-06T00:16:25.406Z,63.79
2023-02-06T00:19:27.131Z,63.77
2023-02-06T00:22:28.792Z,63.61
2023-02-06T00:25:30.457Z,63.70
2023-02-06T00:28:32.304Z,63.69
2023-02-06T00:31:34.040Z,63.74
2023-02-06T00:34:35.719Z,63.69
2023-02-06T00:37:37.402Z,63.83
2023-02-06T00:40:39.368Z,63.78
2023-02-06T00:43:42.162Z,63.83
2023-02-06T00:46:43.951Z,63.83
2023-02-06T00:49:45.778Z,63.94
2023-02-06T00:52:47.544Z,63.90
2023-02-06T00:55:49.305Z,63.93
2023-02-06T00:58:50.988Z,63.98
2023-02-06T01:01:52.761Z,64.09
2023-02-06T01:04:55.126Z,64.30
2023-02-06T01:07:56.815Z,64.52
2023-02-06T01:10:59.801Z,64.63
2023-02-06T01:14:02.011Z,64.76
2023-02-06T01:17:03.902Z,64.77
2023-02-06T01:20:08.515Z,64.75
2023-02-06T01:23:10.893Z,64.65
2023-02-06T01:26:14.700Z,64.65
2023-02-06T01:29:16.671Z,64.59
2023-02-06T01:32:18.426Z,64.47
2023-02-06T01:35:20.393Z,64.51
2023-02-06T01:38:22.131Z,64.50
2023-02-06T01:41:24.353Z,64.51
2023-02-06T01:44:26.600Z,64.53
2023-02-06T01:47:29.035Z,64.44
2023-02-06T01:50:32.733Z,64.52
2023-02-06T01:53:35.265Z,64.48
2023-02-06T01:56:41.306Z,64.42
2023-02-06T01:59:47.395Z,64.47
2023-02-06T02:02:49.429Z,64.51
2023-02-06T02:05:51.769Z,64.49
2023-02-06T02:08:56.573Z,64.61
2023-02-06T02:11:59.870Z,64.75
2023-02-06T02:15:01.633Z,64.87
2023-02-06T02:18:11.593Z,65.13
2023-02-06T02:21:51.075Z,65.20
2023-02-06T02:24:58.672Z,65.34
2023-02-06T02:28:30.605Z,65.28
2023-02-06T02:32:03.414Z,65.32
2023-02-06T02:35:43.961Z,65.27
2023-02-06T02:39:10.731Z,65.20
2023-02-06T02:42:21.171Z,65.10
2023-02-06T02:45:33.165Z,65.09
2023-02-06T02:48:39.757Z,65.01
2023-02-06T02:51:42.436Z,65.02
2023-02-06T02:54:44.095Z,65.10
2023-02-06T02:57:47.495Z,65.02
2023-02-06T03:00:53.641Z,65.06
2023-02-06T03:03:59.526Z,65.08
2023-02-06T03:07:19.973Z,65.16
2023-02-06T03:10:41.954Z,65.23
2023-02-06T03:13:52.218Z,65.28
2023-02-06T03:17:05.786Z,65.32
2023-02-06T03:20:09.476Z,65.61
2023-02-06T03:23:24.344Z,65.59
2023-02-06T03:26:27.718Z,65.76
2023-02-06T03:29:32.154Z,65.79
2023-02-06T03:32:36.782Z,65.87
2023-02-06T03:35:38.988Z,65.82
2023-02-06T03:38:40.930Z,65.87
2023-02-06T03:41:44.344Z,65.79
2023-02-06T03:44:51.633Z,65.85
2023-02-06T03:47:54.733Z,65.76
2023-02-06T03:50:59.751Z,65.84
2023-02-06T03:54:03.480Z,65.81
2023-02-06T03:57:06.702Z,65.87
2023-02-06T04:00:09.565Z,65.94
2023-02-06T04:03:14.992Z,65.98
2023-02-06T04:06:16.752Z,65.99
2023-02-06T04:09:18.427Z,65.95
2023-02-06T04:12:21.713Z,65.96
2023-02-06T04:15:23.329Z,65.98
2023-02-06T04:18:25.032Z,66.08
2023-02-06T04:21:26.688Z,66.11
2023-02-06T04:24:30.798Z,66.28
2023-02-06T04:27:32.979Z,66.50
2023-02-06T04:30:34.813Z,66.69
2023-02-06T04:33:36.502Z,66.61
2023-02-06T04:36:38.162Z,66.64
2023-02-06T04:39:39.865Z,66.60
2023-02-06T04:42:41.517Z,66.49
2023-02-06T04:45:43.284Z,66.49
2023-02-06T04:48:45.008Z,66.50
2023-02-06T04:51:46.669Z,66.43
2023-02-06T04:54:48.414Z,66.41
2023-02-06T04:57:50.068Z,66.39
2023-02-06T05:00:51.878Z,66.26
2023-02-06T05:03:53.533Z,66.35
2023-02-06T05:06:55.269Z,66.33
2023-02-06T05:09:56.923Z,66.37
2023-02-06T05:12:58.628Z,66.45
2023-02-06T05:16:08.446Z,66.53
2023-02-06T05:19:10.808Z,66.73
2023-02-06T05:22:12.709Z,66.88
2023-02-06T05:25:23.036Z,66.96
2023-02-06T05:28:25.204Z,66.99
2023-02-06T05:31:27.290Z,67.02
2023-02-06T05:34:29.145Z,67.07
2023-02-06T05:37:30.901Z,67.07
2023-02-06T05:40:32.894Z,67.08
2023-02-06T05:43:35.048Z,66.95
2023-02-06T05:46:37.721Z,67.04
2023-02-06T05:49:39.474Z,67.10
2023-02-06T05:52:41.257Z,67.04
2023-02-06T05:55:43.032Z,67.00
2023-02-06T05:58:44.636Z,67.03
2023-02-06T06:01:46.343Z,67.20
2023-02-06T06:04:48.126Z,67.32
2023-02-06T06:07:49.964Z,67.47
2023-02-06T06:10:52.375Z,67.59
2023-02-06T06:13:54.052Z,67.70
2023-02-06T06:16:55.665Z,67.83
2023-02-06T06:19:57.728Z,67.87
2023-02-06T06:22:59.366Z,67.82
2023-02-06T06:26:00.996Z,67.80
2023-02-06T06:29:03.172Z,67.72
2023-02-06T06:32:05.351Z,67.78
2023-02-06T06:35:07.671Z,67.68
2023-02-06T06:38:09.432Z,67.69
2023-02-06T06:41:11.131Z,67.70
2023-02-06T06:44:12.848Z,67.68
2023-02-06T06:47:14.611Z,67.68
2023-02-06T06:50:16.419Z,67.70
2023-02-06T06:53:18.241Z,67.75
2023-02-06T06:56:19.833Z,67.89
2023-02-06T06:59:21.488Z,68.01
2023-02-06T07:02:23.132Z,68.04
2023-02-06T07:05:25.080Z,67.99
2023-02-06T07:08:30.121Z,67.94
2023-02-06T07:11:31.879Z,68.00
2023-02-06T07:14:33.542Z,68.06
2023-02-06T07:17:35.405Z,67.88
2023-02-06T07:20:38.200Z,67.82
2023-02-06T07:23:39.859Z,67.76
2023-02-06T07:26:41.666Z,67.73
2023-02-06T07:29:43.796Z,67.73
2023-02-06T07:32:45.549Z,67.70
2023-02-06T07:35:47.480Z,67.68
2023-02-06T07:38:49.171Z,67.72
2023-02-06T07:41:51.139Z,67.63
2023-02-06T07:44:53.896Z,67.75
2023-02-06T07:47:55.689Z,67.81
2023-02-06T07:51:03.101Z,67.98
2023-02-06T07:54:04.844Z,68.08
2023-02-06T07:57:06.503Z,68.08
2023-02-06T08:00:09.396Z,68.04
2023-02-06T08:03:16.787Z,67.90
2023-02-06T08:06:19.269Z,67.76
2023-02-06T08:09:21.127Z,67.60
2023-02-06T08:12:22.992Z,67.46
2023-02-06T08:15:25.573Z,67.31
2023-02-06T08:18:27.547Z,67.18
2023-02-06T08:21:29.187Z,66.97
2023-02-06T08:24:31.277Z,66.93
2023-02-06T08:27:33.029Z,66.70
2023-02-06T08:30:34.846Z,66.64
2023-02-06T08:33:36.867Z,66.32
2023-02-06T08:36:38.931Z,66.22
2023-02-06T08:39:40.584Z,66.08
2023-02-06T08:42:42.352Z,65.83
2023-02-06T08:45:51.160Z,65.73
2023-02-06T08:48:57.560Z,65.57
2023-02-06T08:51:59.242Z,65.47
2023-02-06T08:55:00.902Z,65.29
2023-02-06T08:58:02.888Z,65.21
2023-02-06T09:01:09.184Z,65.02
2023-02-06T09:04:12.872Z,64.91
2023-02-06T09:07:17.169Z,64.75
2023-02-06T09:10:27.551Z,64.55
2023-02-06T09:13:31.218Z,64.45
2023-02-06T09:16:33.783Z,64.21
2023-02-06T09:19:35.444Z,64.09
2023-02-06T09:22:37.140Z,63.98
2023-02-06T09:25:39.375Z,63.82
2023-02-06T09:28:41.239Z,63.79
2023-02-06T09:31:43.522Z,63.46
2023-02-06T09:34:45.378Z,63.36
2023-02-06T09:37:48.094Z,63.18
2023-02-06T09:40:50.034Z,62.94
2023-02-06T09:43:59.823Z,62.86
2023-02-06T09:47:12.697Z,62.54
2023-02-06T09:50:19.731Z,62.42
2023-02-06T09:53:30.363Z,62.19
2023-02-06T09:56:39.992Z,61.82
2023-02-06T09:59:52.538Z,61.52
2023-02-06T10:03:32.061Z,61.45
2023-02-06T10:06:43.757Z,61.25
2023-02-06T10:09:52.061Z,61.22
2023-02-06T10:13:07.857Z,61.22
2023-02-06T10:16:44.576Z,61.09
2023-02-06T10:19:58.315Z,60.95
2023-02-06T10:23:06.104Z,60.84
2023-02-06T10:26:12.585Z,60.77
2023-02-06T10:29:27.700Z,60.69
2023-02-06T10:32:51.992Z,60.49
2023-02-06T10:36:04.418Z,60.39
2023-02-06T10:39:18.384Z,60.28
2023-02-06T10:42:44.243Z,60.17
2023-02-06T10:45:52.242Z,60.08
2023-02-06T10:49:11.920Z,60.05
2023-02-06T10:52:23.931Z,59.86
2023-02-06T10:55:38.583Z,59.72
2023-02-06T10:58:45.667Z,59.73
2023-02-06T11:01:48.293Z,59.63
2023-02-06T11:04:54.348Z,59.46
2023-02-06T11:08:21.692Z,59.43
2023-02-06T11:11:30.099Z,59.32
2023-02-06T11:14:37.790Z,59.16
2023-02-06T11:17:39.487Z,59.05
2023-02-06T11:20:43.063Z,59.02
2023-02-06T11:23:44.711Z,59.00
2023-02-06T11:26:57.169Z,58.81
2023-02-06T11:30:08.517Z,58.84
2023-02-06T11:33:22.893Z,58.80
2023-02-06T11:36:24.520Z,58.74
2023-02-06T11:39:36.641Z,58.61
2023-02-06T11:42:38.232Z,58.55
2023-02-06T11:45:41.218Z,58.46
2023-02-06T11:49:01.291Z,58.30
2023-02-06T11:52:04.162Z,58.42
2023-02-06T11:55:06.332Z,58.40
2023-02-06T11:58:14.050Z,58.27
2023-02-06T12:01:21.838Z,58.36
2023-02-06T12:04:30.893Z,58.34
2023-02-06T12:07:38.677Z,58.23
2023-02-06T12:10:48.501Z,58.02
2023-02-06T12:14:00.844Z,58.13
2023-02-06T12:17:03.626Z,57.93
2023-02-06T12:20:15.628Z,57.85
2023-02-06T12:23:28.257Z,57.82
2023-02-06T12:26:32.381Z,57.61
2023-02-06T12:29:42.041Z,57.58
2023-02-06T12:32:47.097Z,57.57
2023-02-06T12:35:53.912Z,57.65
2023-02-06T12:39:03.370Z,57.50
2023-02-06T12:42:41.791Z,57.52
2023-02-06T12:45:49.775Z,57.47
2023-02-06T12:48:57.274Z,57.35
2023-02-06T12:52:05.620Z,57.34
2023-02-06T12:55:24.673Z,57.31
2023-02-06T12:58:46.115Z,57.21
2023-02-06T13:02:05.483Z,57.14
2023-02-06T13:05:36.301Z,57.03
2023-02-06T13:08:45.245Z,57.07
2023-02-06T13:11:47.180Z,57.07
2023-02-06T13:15:05.892Z,56.95
2023-02-06T13:18:41.966Z,56.99
2023-02-06T13:21:51.556Z,56.85
2023-02-06T13:24:53.418Z,56.66
2023-02-06T13:28:22.435Z,56.65
2023-02-06T13:31:26.482Z,56.59
2023-02-06T13:34:28.637Z,56.56
2023-02-06T13:37:39.102Z,56.47
2023-02-06T13:40:40.741Z,56.41
2023-02-06T13:43:44.833Z,56.31
2023-02-06T13:47:14.703Z,56.31
2023-02-06T13:50:23.053Z,56.13
2023-02-06T13:53:25.098Z,56.02
2023-02-06T13:56:45.585Z,56.11
2023-02-06T13:59:51.312Z,55.91
2023-02-06T14:03:04.166Z,55.92
2023-02-06T14:06:37.261Z,55.72
2023-02-06T14:09:51.586Z,55.65
2023-02-06T14:12:56.320Z,55.41
2023-02-06T14:16:22.722Z,55.43
2023-02-06T14:19:33.990Z,55.30
2023-02-06T14:22:48.381Z,55.23
2023-02-06T14:26:05.463Z,55.06
2023-02-06T14:29:18.371Z,55.00
2023-02-06T14:32:26.177Z,54.87
2023-02-06T14:35:41.216Z,54.94
2023-02-06T14:38:53.429Z,54.88
2023-02-06T14:41:55.273Z,54.85
2023-02-06T14:45:03.969Z,54.68
2023-02-06T14:48:13.502Z,54.60
2023-02-06T14:51:21.359Z,54.70
2023-02-06T14:54:41.847Z,54.56
2023-02-06T14:57:45.540Z,54.59
2023-02-06T15:00:47.628Z,54.58
2023-02-06T15:03:52.567Z,54.53
2023-02-06T15:07:03.243Z,54.43
2023-02-06T15:10:11.686Z,54.41
2023-02-06T15:13:24.248Z,54.48
2023-02-06T15:16:26.094Z,54.42
2023-02-06T15:19:33.301Z,54.41
2023-02-06T15:22:35.565Z,54.43
2023-02-06T15:25:42.466Z,54.42
2023-02-06T15:28:44.359Z,54.34
2023-02-06T15:31:55.233Z,54.31
2023-02-06T15:34:56.964Z,54.39
2023-02-06T15:38:22.648Z,54.42
2023-02-06T15:41:24.493Z,54.36
2023-02-06T15:44:34.221Z,54.46
2023-02-06T15:47:37.192Z,54.46
2023-02-06T15:50:39.208Z,54.55
2023-02-06T15:53:43.596Z,54.64
2023-02-06T15:56:54.886Z,54.61
2023-02-06T15:59:59.491Z,54.71
2023-02-06T16:03:07.913Z,54.71
2023-02-06T16:06:16.781Z,54.78
2023-02-06T16:09:21.656Z,54.90
2023-02-06T16:12:23.807Z,54.99
2023-02-06T16:15:35.093Z,54.81
2023-02-06T16:18:41.125Z,54.98
2023-02-06T16:21:43.744Z,55.06
2023-02-06T16:24:46.349Z,55.11
2023-02-06T16:27:48.906Z,55.21
2023-02-06T16:30:56.101Z,55.23
2023-02-06T16:34:05.087Z,55.37
2023-02-06T16:37:12.979Z,55.27
2023-02-06T16:40:14.656Z,55.38
2023-02-06T16:43:16.506Z,55.42
2023-02-06T16:46:18.362Z,55.50
2023-02-06T16:49:21.895Z,55.53
2023-02-06T16:52:29.240Z,55.56
2023-02-06T16:55:30.901Z,55.71
2023-02-06T16:58:35.031Z,55.73
2023-02-06T17:01:36.905Z,55.84
2023-02-06T17:04:38.851Z,55.80
2023-02-06T17:07:41.103Z,55.81
2023-02-06T17:10:42.906Z,55.93
2023-02-06T17:13:44.773Z,55.95
2023-02-06T17:16:46.481Z,55.93
2023-02-06T17:19:48.814Z,55.97
2023-02-06T17:22:51.903Z,56.03
2023-02-06T17:25:53.750Z,55.96
2023-02-06T17:28:55.438Z,56.03
2023-02-06T17:31:58.066Z,56.04
2023-02-06T17:35:01.712Z,56.16
2023-02-06T17:38:05.102Z,56.14
2023-02-06T17:41:06.764Z,56.18
2023-02-06T17:44:08.477Z,56.20
2023-02-06T17:47:10.246Z,56.16
2023-02-06T17:50:17.400Z,56.24
2023-02-06T17:53:19.148Z,56.33
2023-02-06T17:56:21.120Z,56.40
2023-02-06T17:59:22.819Z,56.40
2023-02-06T18:02:24.515Z,56.46
2023-02-06T18:05:26.898Z,56.60
2023-02-06T18:08:29.615Z,56.54
2023-02-06T18:11:31.633Z,56.56
2023-02-06T18:14:35.423Z,56.68
2023-02-06T18:17:37.063Z,56.76
2023-02-06T18:20:39.406Z,56.80
2023-02-06T18:23:41.734Z,56.90
2023-02-06T18:26:43.424Z,57.03
2023-02-06T18:29:50.079Z,57.06
2023-02-06T18:32:52.272Z,57.16
2023-02-06T18:35:53.931Z,57.34
2023-02-06T18:38:56.817Z,57.32
2023-02-06T18:42:16.992Z,57.38
2023-02-06T18:45:20.317Z,57.51
2023-02-06T18:48:22.069Z,57.55
2023-02-06T18:51:23.954Z,57.68
2023-02-06T18:54:25.661Z,57.61
2023-02-06T18:57:27.434Z,57.58
2023-02-06T19:00:29.185Z,57.71
2023-02-06T19:03:30.846Z,57.74
2023-02-06T19:06:36.520Z,57.78
2023-02-06T19:09:38.712Z,57.82
2023-02-06T19:12:40.446Z,57.78
2023-02-06T19:15:42.135Z,58.04
2023-02-06T19:18:45.854Z,58.05
2023-02-06T19:21:47.590Z,58.11
2023-02-06T19:24:51.224Z,58.27
2023-02-06T19:27:52.932Z,58.38
2023-02-06T19:30:54.685Z,58.42
2023-02-06T19:33:59.017Z,58.55
2023-02-06T19:37:00.635Z,58.50
2023-02-06T19:40:02.437Z,58.54
2023-02-06T19:43:04.269Z,58.71
2023-02-06T19:46:08.723Z,58.73
2023-02-06T19:49:11.112Z,58.75
2023-02-06T19:52:14.503Z,58.81
2023-02-06T19:55:16.181Z,58.77
2023-02-06T19:58:17.877Z,58.95
2023-02-06T20:01:19.631Z,58.96
2023-02-06T20:04:23.759Z,59.07
2023-02-06T20:07:25.435Z,59.09
2023-02-06T20:10:27.262Z,59.17
2023-02-06T20:13:29.121Z,59.25
2023-02-06T20:16:33.986Z,59.19
2023-02-06T20:19:35.873Z,59.25
2023-02-06T20:22:38.598Z,59.36
2023-02-06T20:25:40.338Z,59.35
2023-02-06T20:28:42.041Z,59.45
2023-02-06T20:31:43.876Z,59.37
2023-02-06T20:34:46.542Z,59.51
2023-02-06T20:37:48.208Z,59.60
2023-02-06T20:40:51.146Z,59.53
2023-02-06T20:43:53.030Z,59.63
2023-02-06T20:46:55.248Z,59.72
2023-02-06T20:50:00.972Z,59.77
2023-02-06T20:53:02.801Z,59.73
2023-02-06T20:56:05.114Z,59.90
2023-02-06T20:59:07.759Z,59.79
2023-02-06T21:02:11.025Z,59.93
2023-02-06T21:05:12.730Z,59.98
2023-02-06T21:08:14.548Z,59.98
2023-02-06T21:11:17.968Z,59.97
2023-02-06T21:14:20.161Z,60.02
2023-02-06T21:17:22.520Z,60.01
2023-02-06T21:20:24.834Z,60.05
2023-02-06T21:23:26.564Z,60.04
2023-02-06T21:26:29.023Z,60.18
2023-02-06T21:29:30.699Z,60.16
2023-02-06T21:32:32.922Z,60.08
2023-02-06T21:35:34.662Z,60.11
2023-02-06T21:38:36.394Z,60.13
2023-02-06T21:41:38.399Z,60.19
2023-02-06T21:44:41.221Z,59.99
2023-02-06T21:47:42.941Z,59.99
2023-02-06T21:50:44.994Z,60.04
2023-02-06T21:53:46.714Z,60.09
2023-02-06T21:56:49.111Z,60.06
2023-02-06T21:59:50.744Z,60.00
2023-02-06T22:02:52.447Z,59.96
2023-02-06T22:05:54.171Z,60.06
2023-02-06T22:08:57.225Z,60.14
2023-02-06T22:11:59.053Z,60.07
2023-02-06T22:15:00.766Z,60.02
2023-02-06T22:18:02.440Z,60.07
2023-02-06T22:21:06.109Z,60.12
2023-02-06T22:24:08.664Z,60.25
2023-02-06T22:27:11.626Z,60.17
2023-02-06T22:30:13.721Z,60.25
2023-02-06T22:33:15.336Z,60.17
2023-02-06T22:36:24.013Z,60.39
2023-02-06T22:39:26.133Z,60.37
2023-02-06T22:42:27.729Z,60.58
2023-02-06T22:45:29.677Z,60.96
2023-02-06T22:48:31.490Z,60.99
2023-02-06T22:51:33.622Z,60.97
2023-02-06T22:54:35.300Z,61.02
2023-02-06T22:57:37.319Z,60.98
2023-02-06T23:00:38.882Z,60.88
2023-02-06T23:03:40.606Z,60.93
2023-02-06T23:06:43.267Z,60.91
2023-02-06T23:09:44.862Z,60.76
2023-02-06T23:12:46.558Z,60.76
2023-02-06T23:15:48.266Z,60.73
2023-02-06T23:18:49.906Z,60.70
2023-02-06T23:21:52.094Z,60.67
2023-02-06T23:24:53.723Z,60.79
2023-02-06T23:27:55.356Z,60.67
2023-02-06T23:30:57.073Z,60.76
2023-02-06T23:33:58.772Z,60.61
2023-02-06T23:37:01.390Z,60.70
2023-02-06T23:40:05.289Z,60.72
2023-02-06T23:43:07.732Z,60.66
2023-02-06T23:46:12.236Z,60.73
2023-02-06T23:49:14.111Z,60.64
2023-02-06T23:52:15.810Z,60.60
2023-02-06T23:55:18.392Z,60.68
2023-02-06T23:58:20.094Z,60.80
